createdAt,value
2022-12-25T00:00:26.937Z,1021.0
2022-12-25T00:15:23.258Z,1021.0
2022-12-25T00:30:23.291Z,1021.0
2022-12-25T00:45:23.535Z,1021.0
2022-12-25T01:00:26.643Z,1021.0
2022-12-25T01:15:23.580Z,1021.0
2022-12-25T01:30:23.900Z,1021.0
2022-12-25T01:45:23.570Z,1021.0
2022-12-25T02:00:25.407Z,1021.0
2022-12-25T02:15:23.674Z,1021.0
2022-12-25T02:30:23.688Z,1021.0
2022-12-25T02:45:23.508Z,1021.0
2022-12-25T03:00:23.810Z,1021.0
2022-12-25T03:15:23.710Z,1021.0
2022-12-25T03:30:23.894Z,1021.0
2022-12-25T03:45:23.807Z,1020.3
2022-12-25T04:00:23.650Z,1020.3
2022-12-25T04:15:23.993Z,1020.0
2022-12-25T04:30:23.937Z,1020.0
2022-12-25T04:45:23.790Z,1020.0
2022-12-25T05:00:24.892Z,1020.0
2022-12-25T05:15:23.736Z,1020.0
2022-12-25T05:30:23.697Z,1020.0
2022-12-25T05:45:23.844Z,1020.0
2022-12-25T06:00:36.764Z,1020.0
2022-12-25T06:15:23.776Z,1020.0
2022-12-25T06:30:23.730Z,1019.7
2022-12-25T06:45:23.930Z,1019.0
2022-12-25T07:00:24.018Z,1020.0
2022-12-25T07:15:24.657Z,1020.0
2022-12-25T07:30:24.064Z,1020.0
2022-12-25T07:45:23.901Z,1020.0
2022-12-25T08:00:25.566Z,1019.7
2022-12-25T08:15:22.900Z,1019.7
2022-12-25T08:30:22.925Z,1019.3
2022-12-25T08:45:22.926Z,1019.0
2022-12-25T09:00:23.756Z,1020.0
2022-12-25T09:15:23.110Z,1019.0
2022-12-25T09:30:23.024Z,1019.0
2022-12-25T09:45:23.247Z,1019.0
2022-12-25T10:00:24.828Z,1019.0
2022-12-25T10:15:23.284Z,1019.0
2022-12-25T10:30:23.341Z,1019.0
2022-12-25T10:45:23.625Z,1019.0
2022-12-25T11:00:31.301Z,1018.3
2022-12-25T11:15:23.564Z,1018.0
2022-12-25T11:30:23.312Z,1018.0
2022-12-25T11:45:23.296Z,1018.0
2022-12-25T12:00:46.338Z,1018.0
2022-12-25T12:15:23.459Z,1017.3
2022-12-25T12:30:23.514Z,1017.0
2022-12-25T12:45:23.446Z,1017.0
2022-12-25T13:00:23.401Z,1017.0
2022-12-25T13:15:23.486Z,1017.0
2022-12-25T13:30:23.549Z,1017.0
2022-12-25T13:45:23.432Z,1017.0
2022-12-25T14:00:23.703Z,1017.0
2022-12-25T14:15:23.955Z,1017.0
2022-12-25T14:30:23.805Z,1017.0
2022-12-25T14:45:23.794Z,1017.0
2022-12-25T15:00:29.214Z,1017.0
2022-12-25T15:15:23.601Z,1017.0
2022-12-25T15:30:23.802Z,1017.0
2022-12-25T15:45:23.715Z,1017.0
2022-12-25T16:00:24.941Z,1017.0
2022-12-25T16:15:23.792Z,1017.0
2022-12-25T16:30:24.153Z,1017.0
2022-12-25T16:45:23.825Z,1017.0
2022-12-25T17:00:24.011Z,1017.0
2022-12-25T17:15:24.483Z,1018.0
2022-12-25T17:30:33.570Z,1018.0
2022-12-25T17:45:33.630Z,1018.0
2022-12-25T18:00:44.540Z,1018.0
2022-12-25T18:15:23.129Z,1018.0
2022-12-25T18:30:24.504Z,1018.0
2022-12-25T18:45:23.076Z,1018.0
2022-12-25T19:00:26.803Z,1018.0
2022-12-25T19:15:23.293Z,1018.0
2022-12-25T19:30:23.339Z,1018.0
2022-12-25T19:45:23.381Z,1018.3
2022-12-25T20:00:24.009Z,1019.0
2022-12-25T20:15:23.559Z,1019.0
2022-12-25T20:30:23.698Z,1019.0
2022-12-25T20:45:23.390Z,1019.0
2022-12-25T21:00:24.069Z,1019.0
2022-12-25T21:15:23.407Z,1019.0
2022-12-25T21:30:24.018Z,1019.0
2022-12-25T21:45:23.465Z,1019.0
2022-12-25T22:00:34.533Z,1019.0
2022-12-25T22:15:23.694Z,1019.0
2022-12-25T22:30:23.419Z,1019.0
2022-12-25T22:45:23.575Z,1019.0
2022-12-25T23:03:07.639Z,1019.0
2022-12-25T23:15:24.455Z,1019.3
2022-12-25T23:30:23.703Z,1020.0
2022-12-25T23:45:23.490Z,1020.0
